sensor_id;sensor_type;location;lat;lon;timestamp;pressure;altitude;pressure_sealevel;temperature;humidity
3122;BME280;1571;52.524;14.104;2023-04-28T00:00:04;101421.63;;;1.20;96.50
3122;BME280;1571;52.524;14.104;2023-04-28T00:02:35;101426.75;;;1.31;96.66
3122;BME280;1571;52.524;14.104;2023-04-28T00:05:03;101420.84;;;1.15;96.63
3122;BME280;1571;52.524;14.104;2023-04-28T00:07:32;101427.06;;;1.03;96.99
3122;BME280;1571;52.524;14.104;2023-04-28T00:10:00;101424.31;;;1.17;97.05
3122;BME280;1571;52.524;14.104;2023-04-28T00:12:28;101426.09;;;1.12;97.13
3122;BME280;1571;52.524;14.104;2023-04-28T00:14:57;101421.75;;;1.10;96.83
3122;BME280;1571;52.524;14.104;2023-04-28T00:17:25;101424.66;;;0.85;96.70
3122;BME280;1571;52.524;14.104;2023-04-28T00:19:54;101420.00;;;1.12;96.76
3122;BME280;1571;52.524;14.104;2023-04-28T00:22:23;101419.94;;;1.18;96.53
3122;BME280;1571;52.524;14.104;2023-04-28T00:24:51;101413.13;;;1.04;96.80
3122;BME280;1571;52.524;14.104;2023-04-28T00:27:20;101409.84;;;0.87;96.72
3122;BME280;1571;52.524;14.104;2023-04-28T00:29:48;101411.50;;;0.94;96.55
3122;BME280;1571;52.524;14.104;2023-04-28T00:32:17;101417.69;;;0.87;96.42
3122;BME280;1571;52.524;14.104;2023-04-28T00:34:45;101412.44;;;0.86;96.64
3122;BME280;1571;52.524;14.104;2023-04-28T00:37:15;101412.56;;;0.79;96.69
3122;BME280;1571;52.524;14.104;2023-04-28T00:39:43;101414.25;;;0.82;96.68
3122;BME280;1571;52.524;14.104;2023-04-28T00:42:13;101409.94;;;0.78;96.95
3122;BME280;1571;52.524;14.104;2023-04-28T00:44:42;101406.47;;;0.79;97.00
3122;BME280;1571;52.524;14.104;2023-04-28T00:47:10;101411.75;;;0.73;97.13
3122;BME280;1571;52.524;14.104;2023-04-28T00:49:38;101402.19;;;0.70;96.75
3122;BME280;1571;52.524;14.104;2023-04-28T00:52:07;101396.06;;;0.73;97.06
3122;BME280;1571;52.524;14.104;2023-04-28T00:54:36;101403.91;;;0.73;97.02
3122;BME280;1571;52.524;14.104;2023-04-28T00:57:04;101413.41;;;0.80;97.17
3122;BME280;1571;52.524;14.104;2023-04-28T00:59:33;101415.28;;;0.69;97.52
3122;BME280;1571;52.524;14.104;2023-04-28T01:02:02;101401.47;;;0.57;97.54
3122;BME280;1571;52.524;14.104;2023-04-28T01:04:31;101399.56;;;0.72;97.61
3122;BME280;1571;52.524;14.104;2023-04-28T01:07:01;101399.59;;;0.69;97.71
3122;BME280;1571;52.524;14.104;2023-04-28T01:09:29;101404.00;;;0.64;98.10
3122;BME280;1571;52.524;14.104;2023-04-28T01:11:59;101401.59;;;0.45;98.24
3122;BME280;1571;52.524;14.104;2023-04-28T01:14:37;101409.34;;;0.51;98.00
3122;BME280;1571;52.524;14.104;2023-04-28T01:17:07;101407.69;;;0.44;98.42
3122;BME280;1571;52.524;14.104;2023-04-28T01:19:35;101402.41;;;0.47;98.66
3122;BME280;1571;52.524;14.104;2023-04-28T01:22:04;101396.47;;;0.33;99.56
3122;BME280;1571;52.524;14.104;2023-04-28T01:24:33;101398.84;;;0.57;99.24
3122;BME280;1571;52.524;14.104;2023-04-28T01:27:05;101401.47;;;0.57;99.05
3122;BME280;1571;52.524;14.104;2023-04-28T01:29:33;101398.91;;;0.51;99.04
3122;BME280;1571;52.524;14.104;2023-04-28T01:32:02;101399.84;;;0.44;98.79
3122;BME280;1571;52.524;14.104;2023-04-28T01:34:32;101392.91;;;0.43;98.63
3122;BME280;1571;52.524;14.104;2023-04-28T01:37:00;101396.34;;;0.48;98.86
3122;BME280;1571;52.524;14.104;2023-04-28T01:39:29;101395.53;;;0.40;98.96
3122;BME280;1571;52.524;14.104;2023-04-28T01:41:58;101389.41;;;0.43;99.11
3122;BME280;1571;52.524;14.104;2023-04-28T01:44:28;101386.84;;;0.39;98.98
3122;BME280;1571;52.524;14.104;2023-04-28T01:46:56;101385.94;;;0.42;99.30
3122;BME280;1571;52.524;14.104;2023-04-28T01:49:24;101386.81;;;0.41;99.28
3122;BME280;1571;52.524;14.104;2023-04-28T01:51:52;101391.16;;;0.42;99.06
3122;BME280;1571;52.524;14.104;2023-04-28T01:54:20;101388.66;;;0.31;99.36
3122;BME280;1571;52.524;14.104;2023-04-28T01:56:49;101386.81;;;0.41;99.40
3122;BME280;1571;52.524;14.104;2023-04-28T01:59:20;101387.78;;;0.31;99.70
3122;BME280;1571;52.524;14.104;2023-04-28T02:01:49;101382.69;;;0.18;100.00
3122;BME280;1571;52.524;14.104;2023-04-28T02:04:17;101378.28;;;0.25;100.00
3122;BME280;1571;52.524;14.104;2023-04-28T02:06:46;101378.31;;;0.20;99.75
3122;BME280;1571;52.524;14.104;2023-04-28T02:09:14;101379.25;;;0.13;99.76
3122;BME280;1571;52.524;14.104;2023-04-28T02:11:42;101384.38;;;0.26;100.00
3122;BME280;1571;52.524;14.104;2023-04-28T02:14:11;101369.53;;;0.28;100.00
3122;BME280;1571;52.524;14.104;2023-04-28T02:16:41;101373.91;;;0.27;100.00
3122;BME280;1571;52.524;14.104;2023-04-28T02:19:10;101379.19;;;0.19;100.00
3122;BME280;1571;52.524;14.104;2023-04-28T02:21:40;101372.13;;;0.31;100.00
3122;BME280;1571;52.524;14.104;2023-04-28T02:24:08;101372.13;;;0.29;100.00
3122;BME280;1571;52.524;14.104;2023-04-28T02:26:36;101365.19;;;0.27;100.00
3122;BME280;1571;52.524;14.104;2023-04-28T02:29:05;101370.41;;;0.30;100.00
3122;BME280;1571;52.524;14.104;2023-04-28T02:31:33;101370.50;;;0.20;100.00
3122;BME280;1571;52.524;14.104;2023-04-28T02:34:03;101376.56;;;0.21;100.00
3122;BME280;1571;52.524;14.104;2023-04-28T02:36:31;101365.28;;;0.17;100.00
3122;BME280;1571;52.524;14.104;2023-04-28T02:38:59;101370.44;;;0.24;100.00
3122;BME280;1571;52.524;14.104;2023-04-28T02:41:28;101365.19;;;0.27;100.00
3122;BME280;1571;52.524;14.104;2023-04-28T02:43:57;101367.84;;;0.22;100.00
3122;BME280;1571;52.524;14.104;2023-04-28T02:46:25;101364.34;;;0.25;100.00
3122;BME280;1571;52.524;14.104;2023-04-28T02:48:54;101370.41;;;0.27;100.00
3122;BME280;1571;52.524;14.104;2023-04-28T02:51:23;101359.09;;;0.28;100.00
3122;BME280;1571;52.524;14.104;2023-04-28T02:53:52;101373.88;;;0.29;100.00
3122;BME280;1571;52.524;14.104;2023-04-28T02:56:22;101358.25;;;0.26;100.00
3122;BME280;1571;52.524;14.104;2023-04-28T02:58:50;101355.63;;;0.26;100.00
3122;BME280;1571;52.524;14.104;2023-04-28T03:01:18;101356.59;;;0.18;100.00
3122;BME280;1571;52.524;14.104;2023-04-28T03:03:47;101346.94;;;0.24;100.00
3122;BME280;1571;52.524;14.104;2023-04-28T03:06:15;101348.75;;;0.15;100.00
3122;BME280;1571;52.524;14.104;2023-04-28T03:08:45;101354.88;;;0.14;100.00
3122;BME280;1571;52.524;14.104;2023-04-28T03:11:13;101348.75;;;0.17;100.00
3122;BME280;1571;52.524;14.104;2023-04-28T03:13:42;101340.94;;;0.15;100.00
3122;BME280;1571;52.524;14.104;2023-04-28T03:16:10;101341.88;;;0.11;100.00
3122;BME280;1571;52.524;14.104;2023-04-28T03:18:38;101334.84;;;0.15;100.00
3122;BME280;1571;52.524;14.104;2023-04-28T03:21:07;101342.63;;;0.19;100.00
3122;BME280;1571;52.524;14.104;2023-04-28T03:23:35;101336.63;;;0.11;100.00
3122;BME280;1571;52.524;14.104;2023-04-28T03:26:05;101347.91;;;0.13;100.00
3122;BME280;1571;52.524;14.104;2023-04-28T03:28:33;101336.66;;;0.10;100.00
3122;BME280;1571;52.524;14.104;2023-04-28T03:31:02;101341.78;;;0.17;100.00
3122;BME280;1571;52.524;14.104;2023-04-28T03:33:30;101329.66;;;0.10;100.00
3122;BME280;1571;52.524;14.104;2023-04-28T03:35:59;101334.94;;;0.07;100.00
3122;BME280;1571;52.524;14.104;2023-04-28T03:38:28;101335.78;;;0.06;100.00
3122;BME280;1571;52.524;14.104;2023-04-28T03:40:56;101319.13;;;0.19;100.00
3122;BME280;1571;52.524;14.104;2023-04-28T03:43:31;101336.66;;;0.08;100.00
3122;BME280;1571;52.524;14.104;2023-04-28T03:46:10;101330.66;;;-0.02;100.00
3122;BME280;1571;52.524;14.104;2023-04-28T03:48:39;101333.22;;;0.02;100.00
3122;BME280;1571;52.524;14.104;2023-04-28T03:51:07;101334.88;;;0.12;100.00
3122;BME280;1571;52.524;14.104;2023-04-28T03:53:35;101329.63;;;0.13;100.00
3122;BME280;1571;52.524;14.104;2023-04-28T03:56:04;101334.00;;;0.14;100.00
3122;BME280;1571;52.524;14.104;2023-04-28T03:58:34;101330.47;;;0.15;100.00
3122;BME280;1571;52.524;14.104;2023-04-28T04:01:02;101329.63;;;0.16;100.00
3122;BME280;1571;52.524;14.104;2023-04-28T04:03:31;101332.22;;;0.16;100.00
3122;BME280;1571;52.524;14.104;2023-04-28T04:06:00;101327.72;;;0.29;100.00
3122;BME280;1571;52.524;14.104;2023-04-28T04:08:28;101334.81;;;0.19;100.00
3122;BME280;1571;52.524;14.104;2023-04-28T04:10:59;101325.91;;;0.36;100.00
3122;BME280;1571;52.524;14.104;2023-04-28T04:13:27;101323.38;;;0.30;100.00
3122;BME280;1571;52.524;14.104;2023-04-28T04:15:57;101322.56;;;0.25;100.00
3122;BME280;1571;52.524;14.104;2023-04-28T04:18:26;101323.31;;;0.36;100.00
3122;BME280;1571;52.524;14.104;2023-04-28T04:21:12;101318.06;;;0.39;100.00
3122;BME280;1571;52.524;14.104;2023-04-28T04:23:41;101317.91;;;0.53;100.00
3122;BME280;1571;52.524;14.104;2023-04-28T04:26:09;101316.81;;;0.72;100.00
3122;BME280;1571;52.524;14.104;2023-04-28T04:28:38;101322.91;;;0.70;99.77
3122;BME280;1571;52.524;14.104;2023-04-28T04:31:09;101313.41;;;0.66;99.38
3122;BME280;1571;52.524;14.104;2023-04-28T04:33:38;101316.81;;;0.72;99.36
3122;BME280;1571;52.524;14.104;2023-04-28T04:36:07;101311.47;;;0.80;99.29
3122;BME280;1571;52.524;14.104;2023-04-28T04:38:35;101313.31;;;0.72;99.09
3122;BME280;1571;52.524;14.104;2023-04-28T04:41:12;101311.41;;;0.83;98.86
3122;BME280;1571;52.524;14.104;2023-04-28T04:43:40;101304.59;;;0.71;98.78
3122;BME280;1571;52.524;14.104;2023-04-28T04:46:10;101303.91;;;0.57;98.94
3122;BME280;1571;52.524;14.104;2023-04-28T04:48:38;101310.81;;;0.62;99.38
3122;BME280;1571;52.524;14.104;2023-04-28T04:51:06;101295.91;;;0.69;99.08
3122;BME280;1571;52.524;14.104;2023-04-28T04:53:34;101300.34;;;0.66;99.51
3122;BME280;1571;52.524;14.104;2023-04-28T04:56:04;101298.06;;;1.04;99.65
3122;BME280;1571;52.524;14.104;2023-04-28T04:58:34;101295.78;;;1.40;99.29
3122;BME280;1571;52.524;14.104;2023-04-28T05:01:23;101298.84;;;1.67;98.66
3122;BME280;1571;52.524;14.104;2023-04-28T05:03:52;101301.00;;;1.95;98.15
3122;BME280;1571;52.524;14.104;2023-04-28T05:06:20;101285.78;;;2.15;97.67
3122;BME280;1571;52.524;14.104;2023-04-28T05:08:48;101283.59;;;2.39;96.62
3122;BME280;1571;52.524;14.104;2023-04-28T05:11:17;101280.59;;;2.56;95.66
3122;BME280;1571;52.524;14.104;2023-04-28T05:13:46;101287.38;;;2.22;94.88
3122;BME280;1571;52.524;14.104;2023-04-28T05:16:14;101282.28;;;2.16;94.96
3122;BME280;1571;52.524;14.104;2023-04-28T05:19:04;101283.25;;;2.54;94.11
3122;BME280;1571;52.524;14.104;2023-04-28T05:21:32;101281.06;;;2.75;93.77
3122;BME280;1571;52.524;14.104;2023-04-28T05:24:01;101278.28;;;2.84;93.39
3122;BME280;1571;52.524;14.104;2023-04-28T05:26:29;101274.34;;;3.03;93.66
3122;BME280;1571;52.524;14.104;2023-04-28T05:29:03;101270.13;;;2.96;93.78
3122;BME280;1571;52.524;14.104;2023-04-28T05:31:32;101277.03;;;3.38;93.39
3122;BME280;1571;52.524;14.104;2023-04-28T05:34:00;101271.97;;;3.66;92.26
3122;BME280;1571;52.524;14.104;2023-04-28T05:36:30;101266.63;;;3.69;91.99
3122;BME280;1571;52.524;14.104;2023-04-28T05:38:58;101269.44;;;3.95;91.48
3122;BME280;1571;52.524;14.104;2023-04-28T05:41:27;101261.84;;;4.17;91.50
3122;BME280;1571;52.524;14.104;2023-04-28T05:43:56;101264.22;;;4.58;90.53
3122;BME280;1571;52.524;14.104;2023-04-28T05:46:24;101262.03;;;4.72;89.26
3122;BME280;1571;52.524;14.104;2023-04-28T05:48:58;101257.66;;;5.01;87.68
3122;BME280;1571;52.524;14.104;2023-04-28T05:51:33;101259.09;;;5.11;86.64
3122;BME280;1571;52.524;14.104;2023-04-28T05:54:01;101259.63;;;5.49;86.15
3122;BME280;1571;52.524;14.104;2023-04-28T05:56:34;101262.63;;;5.38;85.86
3122;BME280;1571;52.524;14.104;2023-04-28T05:59:02;101269.53;;;5.14;86.08
3122;BME280;1571;52.524;14.104;2023-04-28T06:01:31;101266.56;;;5.25;86.92
3122;BME280;1571;52.524;14.104;2023-04-28T06:03:59;101266.00;;;5.42;87.26
3122;BME280;1571;52.524;14.104;2023-04-28T06:06:28;101258.56;;;5.81;87.13
3122;BME280;1571;52.524;14.104;2023-04-28T06:09:02;101260.13;;;6.37;86.00
3122;BME280;1571;52.524;14.104;2023-04-28T06:11:32;101248.59;;;6.40;84.86
3122;BME280;1571;52.524;14.104;2023-04-28T06:14:00;101243.16;;;6.44;84.74
3122;BME280;1571;52.524;14.104;2023-04-28T06:16:28;101242.41;;;6.86;84.43
3122;BME280;1571;52.524;14.104;2023-04-28T06:18:56;101231.00;;;7.52;82.23
3122;BME280;1571;52.524;14.104;2023-04-28T06:21:25;101229.94;;;7.77;80.52
3122;BME280;1571;52.524;14.104;2023-04-28T06:23:55;101228.22;;;7.96;77.80
3122;BME280;1571;52.524;14.104;2023-04-28T06:26:25;101223.66;;;8.39;76.62
3122;BME280;1571;52.524;14.104;2023-04-28T06:28:53;101214.28;;;8.71;75.02
3122;BME280;1571;52.524;14.104;2023-04-28T06:31:22;101208.25;;;8.68;72.90
3122;BME280;1571;52.524;14.104;2023-04-28T06:33:52;101205.00;;;8.99;71.84
3122;BME280;1571;52.524;14.104;2023-04-28T06:36:22;101213.22;;;9.12;71.22
3122;BME280;1571;52.524;14.104;2023-04-28T06:38:50;101203.59;;;9.46;69.97
3122;BME280;1571;52.524;14.104;2023-04-28T06:41:18;101195.31;;;9.87;68.30
3122;BME280;1571;52.524;14.104;2023-04-28T06:43:51;101192.53;;;9.55;67.08
3122;BME280;1571;52.524;14.104;2023-04-28T06:46:23;101188.16;;;9.71;66.02
3122;BME280;1571;52.524;14.104;2023-04-28T06:48:52;101192.66;;;9.52;65.74
3122;BME280;1571;52.524;14.104;2023-04-28T06:51:20;101194.31;;;9.54;65.28
3122;BME280;1571;52.524;14.104;2023-04-28T06:53:48;101195.09;;;9.74;65.35
3122;BME280;1571;52.524;14.104;2023-04-28T06:56:19;101190.69;;;9.90;64.47
3122;BME280;1571;52.524;14.104;2023-04-28T06:58:47;101185.38;;;9.90;62.26
3122;BME280;1571;52.524;14.104;2023-04-28T07:01:17;101178.72;;;10.16;61.89
3122;BME280;1571;52.524;14.104;2023-04-28T07:03:45;101183.06;;;10.17;60.72
3122;BME280;1571;52.524;14.104;2023-04-28T07:06:13;101186.31;;;10.40;60.41
3122;BME280;1571;52.524;14.104;2023-04-28T07:08:42;101190.44;;;9.95;59.94
3122;BME280;1571;52.524;14.104;2023-04-28T07:11:10;101195.94;;;10.25;60.13
3122;BME280;1571;52.524;14.104;2023-04-28T07:13:39;101187.00;;;10.44;59.15
3122;BME280;1571;52.524;14.104;2023-04-28T07:16:07;101191.78;;;10.37;59.06
3122;BME280;1571;52.524;14.104;2023-04-28T07:18:37;101193.53;;;10.20;58.86
3122;BME280;1571;52.524;14.104;2023-04-28T07:21:06;101186.16;;;10.43;58.65
3122;BME280;1571;52.524;14.104;2023-04-28T07:23:35;101187.97;;;10.90;57.83
3122;BME280;1571;52.524;14.104;2023-04-28T07:26:04;101182.47;;;10.93;57.18
3122;BME280;1571;52.524;14.104;2023-04-28T07:28:33;101184.34;;;10.59;56.16
3122;BME280;1571;52.524;14.104;2023-04-28T07:31:01;101181.19;;;10.69;56.35
3122;BME280;1571;52.524;14.104;2023-04-28T07:33:29;101183.25;;;10.95;56.52
3122;BME280;1571;52.524;14.104;2023-04-28T07:35:59;101183.41;;;11.38;56.76
3122;BME280;1571;52.524;14.104;2023-04-28T07:38:28;101174.06;;;11.61;55.66
3122;BME280;1571;52.524;14.104;2023-04-28T07:40:56;101176.94;;;11.28;55.09
3122;BME280;1571;52.524;14.104;2023-04-28T07:43:24;101168.00;;;10.99;55.16
3122;BME280;1571;52.524;14.104;2023-04-28T07:45:52;101175.59;;;11.65;55.66
3122;BME280;1571;52.524;14.104;2023-04-28T07:48:21;101176.81;;;11.30;54.93
3122;BME280;1571;52.524;14.104;2023-04-28T07:50:49;101170.19;;;11.67;55.51
3122;BME280;1571;52.524;14.104;2023-04-28T07:53:18;101168.81;;;11.45;54.24
3122;BME280;1571;52.524;14.104;2023-04-28T07:55:47;101164.38;;;11.46;54.42
3122;BME280;1571;52.524;14.104;2023-04-28T07:58:15;101167.75;;;11.78;53.80
3122;BME280;1571;52.524;14.104;2023-04-28T08:00:43;101167.53;;;11.81;54.37
3122;BME280;1571;52.524;14.104;2023-04-28T08:03:12;101158.66;;;11.97;54.12
3122;BME280;1571;52.524;14.104;2023-04-28T08:05:40;101166.47;;;12.14;54.37
3122;BME280;1571;52.524;14.104;2023-04-28T08:08:11;101150.38;;;12.30;53.29
3122;BME280;1571;52.524;14.104;2023-04-28T08:10:40;101160.66;;;12.36;53.99
3122;BME280;1571;52.524;14.104;2023-04-28T08:13:09;101150.97;;;12.62;53.63
3122;BME280;1571;52.524;14.104;2023-04-28T08:15:38;101146.09;;;12.42;53.25
3122;BME280;1571;52.524;14.104;2023-04-28T08:18:06;101158.53;;;12.41;54.30
3122;BME280;1571;52.524;14.104;2023-04-28T08:20:34;101156.56;;;12.72;54.54
3122;BME280;1571;52.524;14.104;2023-04-28T08:23:02;101152.72;;;12.49;53.62
3122;BME280;1571;52.524;14.104;2023-04-28T08:25:31;101155.72;;;12.01;53.78
3122;BME280;1571;52.524;14.104;2023-04-28T08:28:00;101144.72;;;12.49;54.71
3122;BME280;1571;52.524;14.104;2023-04-28T08:30:29;101141.00;;;12.52;53.85
3122;BME280;1571;52.524;14.104;2023-04-28T08:32:57;101135.59;;;12.53;53.72
3122;BME280;1571;52.524;14.104;2023-04-28T08:35:25;101134.81;;;12.65;53.42
3122;BME280;1571;52.524;14.104;2023-04-28T08:37:54;101126.53;;;13.10;52.71
3122;BME280;1571;52.524;14.104;2023-04-28T08:40:23;101133.53;;;12.98;53.05
3122;BME280;1571;52.524;14.104;2023-04-28T08:42:54;101125.28;;;13.16;52.35
3122;BME280;1571;52.524;14.104;2023-04-28T08:45:24;101123.41;;;12.90;52.18
3122;BME280;1571;52.524;14.104;2023-04-28T08:47:55;101118.94;;;12.91;51.81
3122;BME280;1571;52.524;14.104;2023-04-28T08:50:24;101109.97;;;12.92;51.12
3122;BME280;1571;52.524;14.104;2023-04-28T08:52:55;101115.81;;;12.57;51.61
3122;BME280;1571;52.524;14.104;2023-04-28T08:55:24;101112.75;;;12.63;51.45
3122;BME280;1571;52.524;14.104;2023-04-28T08:57:54;101120.44;;;12.68;52.41
3122;BME280;1571;52.524;14.104;2023-04-28T09:00:24;101105.66;;;12.77;51.86
3122;BME280;1571;52.524;14.104;2023-04-28T09:02:53;101110.66;;;13.08;51.56
3122;BME280;1571;52.524;14.104;2023-04-28T09:05:21;101089.75;;;13.42;51.00
3122;BME280;1571;52.524;14.104;2023-04-28T09:07:50;101091.13;;;13.61;51.63
3122;BME280;1571;52.524;14.104;2023-04-28T09:10:20;101081.53;;;13.45;49.88
3122;BME280;1571;52.524;14.104;2023-04-28T09:12:51;101073.81;;;13.79;49.49
3122;BME280;1571;52.524;14.104;2023-04-28T09:15:29;101084.44;;;14.05;50.84
3122;BME280;1571;52.524;14.104;2023-04-28T09:18:00;101076.28;;;13.82;49.03
3122;BME280;1571;52.524;14.104;2023-04-28T09:20:30;101075.13;;;13.73;49.92
3122;BME280;1571;52.524;14.104;2023-04-28T09:23:13;101056.56;;;13.59;49.00
3122;BME280;1571;52.524;14.104;2023-04-28T09:25:55;101057.81;;;13.92;48.74
3122;BME280;1571;52.524;14.104;2023-04-28T09:28:24;101054.38;;;13.26;48.70
3122;BME280;1571;52.524;14.104;2023-04-28T09:30:54;101051.63;;;13.66;49.18
3122;BME280;1571;52.524;14.104;2023-04-28T09:33:23;101045.78;;;13.61;49.31
3122;BME280;1571;52.524;14.104;2023-04-28T09:35:52;101038.19;;;13.54;49.23
3122;BME280;1571;52.524;14.104;2023-04-28T09:38:21;101046.44;;;14.14;50.17
3122;BME280;1571;52.524;14.104;2023-04-28T09:40:55;101034.63;;;14.29;48.52
3122;BME280;1571;52.524;14.104;2023-04-28T09:43:25;101042.97;;;14.25;48.26
3122;BME280;1571;52.524;14.104;2023-04-28T09:45:57;101037.28;;;14.05;49.25
3122;BME280;1571;52.524;14.104;2023-04-28T09:48:29;101023.41;;;14.61;48.67
3122;BME280;1571;52.524;14.104;2023-04-28T09:50:58;101018.94;;;14.49;48.10
3122;BME280;1571;52.524;14.104;2023-04-28T09:53:27;100995.81;;;14.96;47.14
3122;BME280;1571;52.524;14.104;2023-04-28T09:55:57;101007.94;;;14.77;47.65
3122;BME280;1571;52.524;14.104;2023-04-28T09:58:27;101009.63;;;14.78;48.74
3122;BME280;1571;52.524;14.104;2023-04-28T10:00:59;101007.69;;;14.81;48.17
3122;BME280;1571;52.524;14.104;2023-04-28T10:03:29;101001.13;;;14.25;47.27
3122;BME280;1571;52.524;14.104;2023-04-28T10:05:58;101000.31;;;14.12;48.29
3122;BME280;1571;52.524;14.104;2023-04-28T10:08:26;101001.28;;;14.35;48.50
3122;BME280;1571;52.524;14.104;2023-04-28T10:10:55;100993.88;;;14.38;48.53
3122;BME280;1571;52.524;14.104;2023-04-28T10:13:24;100997.09;;;14.07;47.95
3122;BME280;1571;52.524;14.104;2023-04-28T10:15:53;100990.63;;;14.59;49.64
3122;BME280;1571;52.524;14.104;2023-04-28T10:18:26;100982.38;;;14.62;48.63
3122;BME280;1571;52.524;14.104;2023-04-28T10:20:59;100977.16;;;14.36;48.89
3122;BME280;1571;52.524;14.104;2023-04-28T10:23:45;100972.91;;;14.69;48.58
3122;BME280;1571;52.524;14.104;2023-04-28T10:26:16;100960.75;;;14.65;48.25
3122;BME280;1571;52.524;14.104;2023-04-28T10:28:46;100960.25;;;14.60;47.72
3122;BME280;1571;52.524;14.104;2023-04-28T10:31:15;100966.16;;;14.88;48.35
3122;BME280;1571;52.524;14.104;2023-04-28T10:33:46;100959.34;;;14.95;48.27
3122;BME280;1571;52.524;14.104;2023-04-28T10:36:46;100957.22;;;15.34;47.50
3122;BME280;1571;52.524;14.104;2023-04-28T10:39:15;100949.41;;;14.97;47.34
3122;BME280;1571;52.524;14.104;2023-04-28T10:41:44;100936.06;;;15.31;46.31
3122;BME280;1571;52.524;14.104;2023-04-28T10:44:40;100944.56;;;14.91;46.95
3122;BME280;1571;52.524;14.104;2023-04-28T10:47:09;100940.38;;;14.75;46.91
3122;BME280;1571;52.524;14.104;2023-04-28T10:50:10;100931.31;;;15.34;47.10
3122;BME280;1571;52.524;14.104;2023-04-28T10:52:47;100930.59;;;15.44;47.15
3122;BME280;1571;52.524;14.104;2023-04-28T10:55:26;100930.59;;;15.44;46.11
3122;BME280;1571;52.524;14.104;2023-04-28T10:58:31;100912.72;;;15.44;46.88
3122;BME280;1571;52.524;14.104;2023-04-28T11:01:23;100905.84;;;15.96;45.72
3122;BME280;1571;52.524;14.104;2023-04-28T11:03:53;100900.16;;;15.90;46.08
3122;BME280;1571;52.524;14.104;2023-04-28T11:06:29;100895.09;;;16.08;45.72
3122;BME280;1571;52.524;14.104;2023-04-28T11:08:59;100897.09;;;15.94;45.37
3122;BME280;1571;52.524;14.104;2023-04-28T11:11:29;100895.97;;;16.29;44.67
3122;BME280;1571;52.524;14.104;2023-04-28T11:14:30;100891.09;;;16.23;45.35
3122;BME280;1571;52.524;14.104;2023-04-28T11:17:00;100891.00;;;15.92;45.36
3122;BME280;1571;52.524;14.104;2023-04-28T11:19:30;100884.06;;;16.22;44.76
3122;BME280;1571;52.524;14.104;2023-04-28T11:22:02;100879.09;;;16.38;45.52
3122;BME280;1571;52.524;14.104;2023-04-28T11:24:31;100883.53;;;16.70;45.29
3122;BME280;1571;52.524;14.104;2023-04-28T11:26:59;100889.78;;;16.71;45.67
3122;BME280;1571;52.524;14.104;2023-04-28T11:29:32;100881.44;;;16.11;44.79
3122;BME280;1571;52.524;14.104;2023-04-28T11:32:01;100881.03;;;15.94;44.70
3122;BME280;1571;52.524;14.104;2023-04-28T11:34:30;100883.22;;;15.89;45.66
3122;BME280;1571;52.524;14.104;2023-04-28T11:37:00;100885.66;;;15.92;46.19
3122;BME280;1571;52.524;14.104;2023-04-28T11:39:30;100880.91;;;15.85;45.54
3122;BME280;1571;52.524;14.104;2023-04-28T11:42:01;100878.75;;;16.11;45.90
3122;BME280;1571;52.524;14.104;2023-04-28T11:44:30;100871.91;;;16.39;45.84
3122;BME280;1571;52.524;14.104;2023-04-28T11:46:59;100862.09;;;16.70;44.94
3122;BME280;1571;52.524;14.104;2023-04-28T11:49:31;100859.19;;;16.73;44.96
3122;BME280;1571;52.524;14.104;2023-04-28T11:52:05;100858.69;;;17.20;45.75
3122;BME280;1571;52.524;14.104;2023-04-28T11:54:33;100841.44;;;17.73;42.99
3122;BME280;1571;52.524;14.104;2023-04-28T11:57:02;100846.66;;;17.64;44.34
3122;BME280;1571;52.524;14.104;2023-04-28T11:59:32;100851.97;;;16.74;44.30
3122;BME280;1571;52.524;14.104;2023-04-28T12:02:01;100860.13;;;17.24;45.56
3122;BME280;1571;52.524;14.104;2023-04-28T12:04:31;100858.75;;;16.99;45.21
3122;BME280;1571;52.524;14.104;2023-04-28T12:07:04;100850.00;;;16.97;45.05
3122;BME280;1571;52.524;14.104;2023-04-28T12:09:33;100844.84;;;16.63;44.09
3122;BME280;1571;52.524;14.104;2023-04-28T12:12:03;100836.22;;;17.11;43.42
3122;BME280;1571;52.524;14.104;2023-04-28T12:14:52;100842.03;;;17.16;45.29
3122;BME280;1571;52.524;14.104;2023-04-28T12:17:24;100838.63;;;17.14;44.35
3122;BME280;1571;52.524;14.104;2023-04-28T12:19:52;100826.13;;;16.73;43.81
3122;BME280;1571;52.524;14.104;2023-04-28T12:22:22;100835.03;;;16.94;44.59
3122;BME280;1571;52.524;14.104;2023-04-28T12:25:04;100835.53;;;17.19;44.83
3122;BME280;1571;52.524;14.104;2023-04-28T12:27:34;100832.03;;;16.88;46.01
3122;BME280;1571;52.524;14.104;2023-04-28T12:30:23;100831.00;;;17.10;45.33
3122;BME280;1571;52.524;14.104;2023-04-28T12:32:51;100818.56;;;16.78;44.30
3122;BME280;1571;52.524;14.104;2023-04-28T12:35:22;100829.94;;;16.70;45.59
3122;BME280;1571;52.524;14.104;2023-04-28T12:37:52;100828.38;;;16.26;45.19
3122;BME280;1571;52.524;14.104;2023-04-28T12:40:21;100830.00;;;16.28;46.23
3122;BME280;1571;52.524;14.104;2023-04-28T12:42:50;100823.09;;;16.56;45.81
3122;BME280;1571;52.524;14.104;2023-04-28T12:45:18;100821.09;;;16.49;45.33
3122;BME280;1571;52.524;14.104;2023-04-28T12:47:47;100815.28;;;16.74;44.86
3122;BME280;1571;52.524;14.104;2023-04-28T12:50:15;100814.53;;;16.62;45.42
3122;BME280;1571;52.524;14.104;2023-04-28T12:52:43;100819.59;;;16.35;45.68
3122;BME280;1571;52.524;14.104;2023-04-28T12:55:13;100809.41;;;16.59;46.39
3122;BME280;1571;52.524;14.104;2023-04-28T12:57:41;100809.78;;;17.06;45.77
3122;BME280;1571;52.524;14.104;2023-04-28T13:00:10;100805.91;;;16.59;46.33
3122;BME280;1571;52.524;14.104;2023-04-28T13:02:42;100806.06;;;16.36;45.79
3122;BME280;1571;52.524;14.104;2023-04-28T13:05:11;100805.00;;;16.49;46.12
3122;BME280;1571;52.524;14.104;2023-04-28T13:07:40;100797.28;;;16.34;45.79
3122;BME280;1571;52.524;14.104;2023-04-28T13:10:09;100786.97;;;16.51;45.57
3122;BME280;1571;52.524;14.104;2023-04-28T13:12:40;100793.25;;;16.40;45.73
3122;BME280;1571;52.524;14.104;2023-04-28T13:15:09;100792.34;;;16.51;46.99
3122;BME280;1571;52.524;14.104;2023-04-28T13:17:38;100791.72;;;16.99;45.60
3122;BME280;1571;52.524;14.104;2023-04-28T13:20:07;100782.84;;;17.08;46.52